10 minutes ago
Runway Headwind Crosswind Length
1/19 3 kt 2,395 ft
METAR EHRD 202055Z AUTO 36004KT 9999 NSC 17/15 Q1008 NOSIG

METAR definition | Embed

METAR Vliegveld Numansdorp

Vliegveld Numansdorp is a small airport in Numansdorp, The Netherlands. The airport has one runway: 1/19 (2,395 ft)

Vliegveld Numansdorp didn't publish observations recently. Instead, we show you the report of Rotterdam The Hague Airport which is 14 mi away. This report was made on June 20, 2021 10:55 pm, local time.

Airport observations

The wind is from direction north (360°) with a speed of 4 kt.

Visibility is 6¼ mi or more.

There are no significant clouds are observed. No ceiling has been observed.

The temperature and wind chill are 63 °F. The dew point is 59 °F, the relative humidity is 88%. The air pressure at sea level is 29.77 inHg (QNH).

Daylight period

Today the sun rises at 5:23 am and sets at 10:04 pm. This applies to Vliegveld Numansdorp, the universal daylight period may be different. The difference between the local time and UTC is +2 hour. Daylight saving time is currently in progress.

Historical data

Donate

Will you help us to keep Metar-Taf.com running?
Your contribution helps further development of the site and to pay for the expenses.

No more ads

Are you donating $ 5 or more? Then we'll never show you ads again, as a token of our eternal gratitude!
Log in before you donate

Do you want the flying weather of Vliegveld Numansdorp on your website? Read more   Free!